Time;durP1;ratioP1;P1;durP2;ratioP2;P2;SDS_P1;SDS_P2;PMS_P1;PMS_P2;Temp;Humidity;BMP_temperature;BMP_pressure;BME280_temperature;BME280_humidity;BME280_pressure;Samples;Min_cycle;Max_cycle;Signal;HPM_P1;HPM_P2
2022/05/13 00:01:04;;;;;;;4.75;2.10;;;;;;;;;;4989476;28;20077;-59
2022/05/13 00:03:30;;;;;;;10.30;2.37;;;;;;;;;;4989022;28;20455;-59
2022/05/13 00:05:56;;;;;;;3.40;1.83;;;;;;;;;;4988438;28;20038;-59
2022/05/13 00:08:22;;;;;;;8.65;2.45;;;;;;;;;;4987692;28;20046;-59
2022/05/13 00:10:48;;;;;;;5.50;1.83;;;;;;;;;;4988496;28;20550;-59
2022/05/13 00:13:15;;;;;;;5.32;1.63;;;;;;;;;;4988312;28;20082;-61
2022/05/13 00:15:42;;;;;;;6.78;1.80;;;;;;;;;;4988851;28;20611;-59
2022/05/13 00:18:09;;;;;;;5.38;1.52;;;;;;;;;;4988666;28;20039;-59
2022/05/13 00:20:35;;;;;;;7.15;1.70;;;;;;;;;;4988167;28;20117;-61
2022/05/13 00:23:01;;;;;;;5.00;1.95;;;;;;;;;;4988182;28;20050;-59
2022/05/13 00:25:30;;;;;;;7.45;2.25;;;;;;;;;;4988453;28;20046;-59
2022/05/13 00:27:57;;;;;;;6.38;1.90;;;;;;;;;;4988799;28;20116;-59
2022/05/13 00:30:23;;;;;;;6.50;2.47;;;;;;;;;;4988413;28;20042;-60
2022/05/13 00:32:49;;;;;;;8.13;1.90;;;;;;;;;;4988180;28;20056;-59
2022/05/13 00:35:16;;;;;;;9.85;2.53;;;;;;;;;;4988393;28;20050;-60
2022/05/13 00:37:42;;;;;;;7.78;2.22;;;;;;;;;;4987607;28;20518;-59
2022/05/13 00:40:09;;;;;;;6.78;2.35;;;;;;;;;;4988218;28;20129;-60
2022/05/13 00:42:35;;;;;;;13.30;2.63;;;;;;;;;;4988281;28;20039;-60
2022/05/13 00:45:01;;;;;;;4.85;2.00;;;;;;;;;;4988483;28;20481;-59
2022/05/13 00:47:27;;;;;;;9.00;2.20;;;;;;;;;;4987381;28;20045;-59
2022/05/13 00:49:55;;;;;;;8.35;2.65;;;;;;;;;;4988213;28;20089;-59
2022/05/13 00:52:22;;;;;;;6.78;2.20;;;;;;;;;;4988028;28;20046;-59
2022/05/13 00:54:49;;;;;;;8.90;2.17;;;;;;;;;;4987135;28;20045;-59
2022/05/13 00:57:15;;;;;;;6.88;2.40;;;;;;;;;;4987880;28;20042;-60
2022/05/13 00:59:43;;;;;;;8.82;2.17;;;;;;;;;;4987746;28;20046;-59
2022/05/13 01:02:10;;;;;;;4.27;2.10;;;;;;;;;;4987419;28;20049;-59
2022/05/13 01:04:37;;;;;;;6.22;2.00;;;;;;;;;;4987462;28;20633;-60
2022/05/13 01:07:06;;;;;;;8.07;2.30;;;;;;;;;;4988261;28;20092;-59
2022/05/13 01:09:33;;;;;;;6.93;2.20;;;;;;;;;;4986636;28;20150;-59
2022/05/13 01:12:02;;;;;;;9.35;2.30;;;;;;;;;;4988046;28;20058;-59
2022/05/13 01:14:28;;;;;;;;;;;;;;;;;;4986476;28;20076;-59
2022/05/13 01:19:40;;;;;;;8.75;2.20;;;;;;;;;;4987867;28;20043;-59
2022/05/13 01:22:13;;;;;;;9.50;2.10;;;;;;;;;;4987426;28;20061;-59
2022/05/13 01:24:40;;;;;;;6.00;2.20;;;;;;;;;;4986758;28;20042;-59
2022/05/13 01:27:06;;;;;;;7.45;2.53;;;;;;;;;;4987300;28;20081;-60
2022/05/13 01:29:32;;;;;;;7.85;2.30;;;;;;;;;;4987211;28;20396;-59
2022/05/13 01:31:58;;;;;;;8.05;2.22;;;;;;;;;;4986903;28;20043;-59
2022/05/13 01:34:24;;;;;;;7.95;2.33;;;;;;;;;;4987272;28;20145;-59
2022/05/13 01:36:50;;;;;;;5.88;1.90;;;;;;;;;;4986920;28;20054;-59
2022/05/13 01:39:16;;;;;;;7.50;2.28;;;;;;;;;;4986194;28;20137;-59
2022/05/13 01:41:43;;;;;;;5.80;2.40;;;;;;;;;;4987269;28;20050;-59
2022/05/13 01:44:09;;;;;;;9.95;2.33;;;;;;;;;;4987357;28;20046;-59
2022/05/13 01:46:35;;;;;;;6.18;2.05;;;;;;;;;;4987025;28;20050;-60
2022/05/13 01:49:01;;;;;;;9.32;2.20;;;;;;;;;;4987557;28;20046;-59
2022/05/13 01:51:28;;;;;;;6.10;2.30;;;;;;;;;;4986265;28;20097;-59
2022/05/13 01:53:54;;;;;;;9.05;2.42;;;;;;;;;;4986396;28;20042;-58
2022/05/13 01:56:20;;;;;;;7.40;2.60;;;;;;;;;;4986462;28;20050;-59
2022/05/13 01:58:46;;;;;;;9.82;2.40;;;;;;;;;;4987176;28;20050;-59
2022/05/13 02:01:12;;;;;;;6.13;2.20;;;;;;;;;;4986661;28;20081;-59
2022/05/13 02:03:44;;;;;;;6.30;2.42;;;;;;;;;;4985316;28;20046;-59
2022/05/13 02:06:11;;;;;;;7.43;2.53;;;;;;;;;;4986768;28;20038;-59
2022/05/13 02:08:38;;;;;;;7.65;2.70;;;;;;;;;;4985390;28;20109;-60
2022/05/13 02:11:05;;;;;;;6.10;2.17;;;;;;;;;;4986574;28;20574;-59
2022/05/13 02:13:31;;;;;;;7.25;2.40;;;;;;;;;;4986679;28;20050;-59
2022/05/13 02:15:58;;;;;;;10.73;2.75;;;;;;;;;;4986768;28;20088;-59
2022/05/13 02:18:24;;;;;;;5.40;2.25;;;;;;;;;;4985648;28;20046;-59
2022/05/13 02:20:50;;;;;;;5.85;2.15;;;;;;;;;;4986600;28;20038;-59
2022/05/13 02:23:19;;;;;;;9.68;2.17;;;;;;;;;;4985230;28;20555;-60
2022/05/13 02:25:45;;;;;;;10.77;2.55;;;;;;;;;;4986653;28;20112;-59
2022/05/13 02:28:11;;;;;;;6.78;2.33;;;;;;;;;;4986313;28;20584;-59
2022/05/13 02:30:37;;;;;;;7.57;2.72;;;;;;;;;;4984975;28;20081;-60
2022/05/13 02:33:03;;;;;;;7.50;2.22;;;;;;;;;;4986319;28;20042;-59
2022/05/13 02:35:29;;;;;;;11.10;2.38;;;;;;;;;;4979692;28;20047;-59
2022/05/13 02:37:56;;;;;;;4.70;2.45;;;;;;;;;;4968457;28;20047;-59
2022/05/13 02:41:11;;;;;;;6.13;2.53;;;;;;;;;;4970576;28;20069;-59
2022/05/13 02:43:12;;;;;;;6.97;2.30;;;;;;;;;;4965434;28;20058;-59
2022/05/13 02:45:39;;;;;;;10.88;2.67;;;;;;;;;;4965194;28;20433;-59
2022/05/13 02:48:05;;;;;;;7.97;2.50;;;;;;;;;;4966799;28;20042;-61
2022/05/13 02:50:31;;;;;;;7.75;2.40;;;;;;;;;;4967112;28;20531;-59
2022/05/13 02:52:59;;;;;;;9.88;2.95;;;;;;;;;;4964942;28;20058;-59
2022/05/13 02:55:26;;;;;;;13.93;2.72;;;;;;;;;;4980437;28;20054;-59
2022/05/13 02:57:52;;;;;;;8.13;3.00;;;;;;;;;;4986247;28;20078;-59
2022/05/13 03:00:18;;;;;;;10.43;3.30;;;;;;;;;;4985829;28;20054;-60
2022/05/13 03:02:44;;;;;;;9.57;2.70;;;;;;;;;;4985861;28;20042;-59
2022/05/13 03:05:10;;;;;;;10.32;2.75;;;;;;;;;;4985857;28;20050;-59
2022/05/13 03:07:36;;;;;;;6.35;3.03;;;;;;;;;;4985016;28;20057;-60
2022/05/13 03:10:05;;;;;;;75.45;5.07;;;;;;;;;;4984316;28;20064;-59
2022/05/13 03:12:31;;;;;;;7.43;2.60;;;;;;;;;;4986223;28;20073;-59
2022/05/13 03:14:57;;;;;;;6.82;2.42;;;;;;;;;;4986041;28;20121;-59
2022/05/13 03:17:23;;;;;;;9.48;2.42;;;;;;;;;;4985611;28;20121;-59
2022/05/13 03:19:49;;;;;;;10.27;3.13;;;;;;;;;;4985723;28;20050;-59
2022/05/13 03:22:16;;;;;;;11.93;2.92;;;;;;;;;;4984947;28;20050;-59
2022/05/13 03:24:42;;;;;;;6.00;2.42;;;;;;;;;;4985360;28;20057;-59
2022/05/13 03:27:08;;;;;;;5.90;2.35;;;;;;;;;;4985656;28;20039;-59
2022/05/13 03:29:36;;;;;;;10.05;2.47;;;;;;;;;;4973918;28;20483;-60
2022/05/13 03:32:05;;;;;;;11.52;2.63;;;;;;;;;;4966581;28;20043;-59
2022/05/13 03:34:31;;;;;;;6.93;2.45;;;;;;;;;;4966463;28;20130;-59
2022/05/13 03:36:57;;;;;;;10.93;2.90;;;;;;;;;;4966054;28;20595;-59
2022/05/13 03:39:23;;;;;;;10.98;2.30;;;;;;;;;;4965445;28;20474;-59
2022/05/13 03:41:49;;;;;;;10.40;3.00;;;;;;;;;;4978865;28;20121;-59
2022/05/13 03:44:18;;;;;;;9.70;2.70;;;;;;;;;;4985053;28;20492;-60
2022/05/13 03:46:44;;;;;;;6.85;2.53;;;;;;;;;;4985499;28;20042;-59
2022/05/13 03:49:10;;;;;;;11.77;2.80;;;;;;;;;;4985664;28;20065;-59
2022/05/13 03:51:36;;;;;;;7.00;2.70;;;;;;;;;;4985084;28;20042;-59
2022/05/13 03:54:02;;;;;;;10.25;2.75;;;;;;;;;;4985374;28;20050;-59
2022/05/13 03:56:29;;;;;;;9.43;2.45;;;;;;;;;;4988852;28;20042;-59
2022/05/13 03:58:55;;;;;;;10.07;2.88;;;;;;;;;;4989097;28;20297;-59
2022/05/13 04:01:21;;;;;;;11.38;3.60;;;;;;;;;;4970506;28;20054;-59
2022/05/13 04:03:48;;;;;;;9.45;2.58;;;;;;;;;;4969445;28;20047;-59
2022/05/13 04:09:00;;;;;;;13.43;3.17;;;;;;;;;;4968859;28;20051;-59
2022/05/13 04:11:28;;;;;;;16.50;2.85;;;;;;;;;;4975365;28;20176;-59
2022/05/13 04:16:39;;;;;;;18.13;3.65;;;;;;;;;;4989082;28;20321;-60
2022/05/13 04:19:05;;;;;;;10.85;2.78;;;;;;;;;;4988831;28;20078;-60
2022/05/13 04:21:33;;;;;;;9.00;2.28;;;;;;;;;;4988753;28;20066;-59
2022/05/13 04:24:00;;;;;;;9.40;2.27;;;;;;;;;;4987980;28;20052;-59
2022/05/13 04:26:27;;;;;;;13.80;2.65;;;;;;;;;;4987792;28;20274;-59
2022/05/13 04:28:54;;;;;;;12.68;2.58;;;;;;;;;;4988779;28;20093;-59
2022/05/13 04:31:21;;;;;;;7.85;2.70;;;;;;;;;;4988146;28;20046;-59
2022/05/13 04:33:48;;;;;;;14.73;3.47;;;;;;;;;;4988539;28;20096;-59
2022/05/13 04:36:15;;;;;;;20.50;3.47;;;;;;;;;;4987960;28;20132;-61
2022/05/13 04:38:41;;;;;;;9.63;2.63;;;;;;;;;;4986912;28;20061;-59
2022/05/13 04:43:53;;;;;;;11.13;2.88;;;;;;;;;;4988366;28;20065;-59
2022/05/13 04:46:20;;;;;;;15.02;2.95;;;;;;;;;;4988154;28;20100;-59
2022/05/13 04:48:47;;;;;;;10.95;2.90;;;;;;;;;;4987726;28;20108;-59
2022/05/13 04:51:13;;;;;;;13.18;2.45;;;;;;;;;;4987958;28;20043;-59
2022/05/13 04:53:39;;;;;;;12.05;2.92;;;;;;;;;;4987530;28;20054;-60
2022/05/13 04:56:07;;;;;;;6.38;2.33;;;;;;;;;;4974107;28;20050;-60
2022/05/13 04:58:34;;;;;;;10.40;2.65;;;;;;;;;;4968974;28;20051;-59
2022/05/13 05:01:01;;;;;;;14.02;2.85;;;;;;;;;;4968851;28;20038;-59
2022/05/13 05:03:28;;;;;;;15.70;3.60;;;;;;;;;;4973353;28;20053;-59
2022/05/13 05:05:55;;;;;;;8.70;2.83;;;;;;;;;;4985485;28;20396;-59
2022/05/13 05:08:21;;;;;;;12.55;3.17;;;;;;;;;;4986788;28;20141;-59
2022/05/13 05:10:47;;;;;;;10.57;2.95;;;;;;;;;;4987510;28;20050;-59
2022/05/13 05:13:18;;;;;;;12.57;3.28;;;;;;;;;;4970450;28;20075;-60
2022/05/13 05:15:45;;;;;;;15.50;3.20;;;;;;;;;;4966945;28;20085;-60
2022/05/13 05:18:11;;;;;;;21.42;2.80;;;;;;;;;;4984902;28;20058;-60
2022/05/13 05:20:38;;;;;;;16.92;3.67;;;;;;;;;;4974598;28;20524;-59
2022/05/13 05:23:05;;;;;;;11.77;3.08;;;;;;;;;;4965568;28;20155;-59
2022/05/13 05:25:31;;;;;;;15.02;2.83;;;;;;;;;;4965991;28;20544;-59
2022/05/13 05:27:57;;;;;;;14.13;3.20;;;;;;;;;;4976307;28;20054;-58
2022/05/13 05:30:24;;;;;;;10.13;2.53;;;;;;;;;;4984184;28;20520;-58
2022/05/13 05:32:51;;;;;;;15.30;2.70;;;;;;;;;;4973053;28;20057;-57
2022/05/13 05:35:19;;;;;;;13.48;3.05;;;;;;;;;;4975527;28;20571;-58
2022/05/13 05:37:46;;;;;;;11.65;3.30;;;;;;;;;;4978580;28;20050;-57
2022/05/13 05:40:12;;;;;;;10.18;2.75;;;;;;;;;;4976634;28;20038;-57
2022/05/13 05:42:39;;;;;;;13.25;2.92;;;;;;;;;;4974250;28;20054;-57
2022/05/13 05:45:06;;;;;;;17.85;3.38;;;;;;;;;;4965336;28;20039;-58
2022/05/13 05:47:32;;;;;;;13.73;2.90;;;;;;;;;;4965585;28;20034;-57
2022/05/13 05:49:59;;;;;;;15.20;3.35;;;;;;;;;;4971726;28;20365;-57
2022/05/13 05:52:25;;;;;;;11.27;2.88;;;;;;;;;;4963780;28;20054;-57
2022/05/13 05:57:36;;;;;;;12.73;3.60;;;;;;;;;;4976741;28;20106;-58
2022/05/13 06:00:05;;;;;;;13.02;2.63;;;;;;;;;;4984950;28;20113;-58
2022/05/13 06:02:32;;;;;;;10.63;2.92;;;;;;;;;;4986461;28;20104;-57
2022/05/13 06:04:58;;;;;;;10.00;3.10;;;;;;;;;;4973571;28;20053;-57
2022/05/13 06:07:26;;;;;;;12.02;2.92;;;;;;;;;;4984589;28;20524;-57
2022/05/13 06:09:53;;;;;;;9.93;3.10;;;;;;;;;;4986362;28;20078;-57
2022/05/13 06:12:19;;;;;;;22.20;3.67;;;;;;;;;;4986261;28;20054;-57
2022/05/13 06:14:45;;;;;;;13.18;3.13;;;;;;;;;;4986319;28;20122;-57
2022/05/13 06:17:12;;;;;;;11.57;3.47;;;;;;;;;;4986473;28;20081;-57
2022/05/13 06:19:38;;;;;;;15.60;3.00;;;;;;;;;;4986209;28;20057;-57
2022/05/13 06:22:05;;;;;;;10.98;2.78;;;;;;;;;;4985655;28;20034;-58
2022/05/13 06:24:31;;;;;;;12.52;3.00;;;;;;;;;;4986311;28;20536;-57
2022/05/13 06:26:57;;;;;;;14.00;3.22;;;;;;;;;;4986168;28;20504;-57
2022/05/13 06:29:24;;;;;;;10.50;2.72;;;;;;;;;;4985747;28;20518;-57
2022/05/13 06:31:52;;;;;;;11.93;2.90;;;;;;;;;;4985582;28;20116;-57
2022/05/13 06:34:19;;;;;;;16.23;3.10;;;;;;;;;;4984636;28;20563;-57
2022/05/13 06:36:45;;;;;;;13.52;2.97;;;;;;;;;;4976740;28;20039;-57
2022/05/13 06:39:12;;;;;;;16.38;3.42;;;;;;;;;;4966445;28;20053;-57
2022/05/13 06:41:40;;;;;;;11.18;3.05;;;;;;;;;;4971737;28;20042;-57
2022/05/13 06:44:07;;;;;;;17.83;2.70;;;;;;;;;;4965734;28;20515;-57
2022/05/13 06:46:35;;;;;;;15.88;3.15;;;;;;;;;;4966798;28;20092;-57
2022/05/13 06:49:04;;;;;;;13.30;2.70;;;;;;;;;;4966819;28;20122;-57
2022/05/13 06:51:30;;;;;;;8.80;1.90;;;;;;;;;;4966543;28;20065;-57
2022/05/13 06:53:56;;;;;;;7.65;1.27;;;;;;;;;;4965384;28;20055;-57
2022/05/13 06:56:22;;;;;;;5.78;1.20;;;;;;;;;;4966079;28;20046;-57
2022/05/13 06:58:49;;;;;;;12.73;1.85;;;;;;;;;;4966843;28;20515;-57
2022/05/13 07:01:15;;;;;;;12.45;1.85;;;;;;;;;;4965854;28;20046;-58
2022/05/13 07:03:41;;;;;;;7.50;1.20;;;;;;;;;;4966635;28;20051;-57
2022/05/13 07:06:07;;;;;;;9.55;1.05;;;;;;;;;;4966319;28;20039;-58
2022/05/13 07:08:33;;;;;;;10.07;1.23;;;;;;;;;;4965633;28;20086;-57
2022/05/13 07:10:59;;;;;;;5.20;0.95;;;;;;;;;;4965990;28;20046;-57
2022/05/13 07:13:25;;;;;;;10.05;1.10;;;;;;;;;;4966223;28;20055;-57
2022/05/13 07:15:52;;;;;;;9.05;1.50;;;;;;;;;;4966109;28;20095;-57
2022/05/13 07:18:18;;;;;;;11.90;1.35;;;;;;;;;;4966023;28;20047;-57
2022/05/13 07:20:44;;;;;;;9.82;1.20;;;;;;;;;;4966492;28;20128;-57
2022/05/13 07:23:10;;;;;;;8.80;1.30;;;;;;;;;;4965257;28;20101;-57
2022/05/13 07:25:36;;;;;;;8.35;1.40;;;;;;;;;;4966307;28;20105;-58
2022/05/13 07:28:02;;;;;;;9.32;1.38;;;;;;;;;;4966330;28;20082;-57
2022/05/13 07:30:28;;;;;;;10.25;1.55;;;;;;;;;;4969590;28;20138;-57
2022/05/13 07:32:55;;;;;;;9.65;1.40;;;;;;;;;;4970081;28;20054;-57
2022/05/13 07:35:21;;;;;;;9.38;1.15;;;;;;;;;;4969607;28;20043;-57
2022/05/13 07:37:47;;;;;;;6.95;1.40;;;;;;;;;;4969162;28;20050;-57
2022/05/13 07:42:58;;;;;;;7.80;1.65;;;;;;;;;;4969881;28;20109;-57
2022/05/13 07:45:24;;;;;;;5.80;1.10;;;;;;;;;;4969650;28;20097;-57
2022/05/13 07:47:50;;;;;;;5.40;1.40;;;;;;;;;;4969782;28;20069;-57
2022/05/13 07:50:17;;;;;;;4.57;1.13;;;;;;;;;;4969731;28;20057;-58
2022/05/13 07:52:43;;;;;;;5.28;1.25;;;;;;;;;;4968718;28;20050;-57
2022/05/13 07:55:11;;;;;;;6.43;1.48;;;;;;;;;;4969729;28;20105;-57
2022/05/13 07:57:38;;;;;;;4.10;1.35;;;;;;;;;;4969361;28;20066;-58
2022/05/13 08:02:50;;;;;;;5.00;1.30;;;;;;;;;;4968931;28;20305;-58
2022/05/13 08:05:16;;;;;;;9.20;1.20;;;;;;;;;;4969239;28;20051;-58
2022/05/13 08:07:42;;;;;;;6.28;1.10;;;;;;;;;;4968509;28;20039;-57
2022/05/13 08:10:08;;;;;;;6.53;1.15;;;;;;;;;;4969110;28;20047;-57
2022/05/13 08:12:35;;;;;;;11.82;1.20;;;;;;;;;;4969257;28;20093;-59
2022/05/13 08:15:01;;;;;;;5.10;1.13;;;;;;;;;;4969660;28;20046;-58
2022/05/13 08:17:27;;;;;;;4.75;1.10;;;;;;;;;;4968375;28;20122;-58
2022/05/13 08:19:53;;;;;;;3.67;0.90;;;;;;;;;;4969309;28;20515;-58
2022/05/13 08:22:19;;;;;;;3.30;1.00;;;;;;;;;;4968134;28;20516;-58
2022/05/13 08:24:45;;;;;;;6.22;1.15;;;;;;;;;;4969160;28;20050;-58
2022/05/13 08:27:11;;;;;;;5.65;1.00;;;;;;;;;;4969407;28;20039;-58
2022/05/13 08:29:37;;;;;;;5.63;1.00;;;;;;;;;;4968770;28;20077;-58
2022/05/13 08:32:04;;;;;;;3.08;0.95;;;;;;;;;;4968862;28;20683;-58
2022/05/13 08:34:30;;;;;;;8.70;1.13;;;;;;;;;;4969026;28;20043;-58
2022/05/13 08:36:56;;;;;;;6.57;0.80;;;;;;;;;;4968237;28;20118;-58
2022/05/13 08:39:23;;;;;;;9.68;1.23;;;;;;;;;;4967928;28;20543;-58
2022/05/13 08:41:49;;;;;;;5.88;1.10;;;;;;;;;;4967898;28;20112;-58
2022/05/13 08:44:15;;;;;;;7.22;1.15;;;;;;;;;;4967951;28;20050;-58
2022/05/13 08:46:44;;;;;;;7.00;1.50;;;;;;;;;;4967268;28;20153;-58
2022/05/13 08:49:24;;;;;;;4.93;0.85;;;;;;;;;;4968714;28;20130;-58
2022/05/13 08:51:57;;;;;;;4.03;0.82;;;;;;;;;;4966876;28;20125;-58
2022/05/13 08:54:26;;;;;;;5.45;0.80;;;;;;;;;;4966388;28;20043;-58
2022/05/13 08:56:55;;;;;;;14.15;1.35;;;;;;;;;;4968424;28;20043;-58
2022/05/13 08:59:22;;;;;;;8.45;1.05;;;;;;;;;;4968030;28;20047;-58
2022/05/13 09:01:53;;;;;;;7.93;1.63;;;;;;;;;;4968426;28;20043;-58
2022/05/13 09:04:23;;;;;;;5.25;1.40;;;;;;;;;;4967989;28;20359;-58
2022/05/13 09:06:53;;;;;;;4.25;1.15;;;;;;;;;;4967732;28;20047;-58
2022/05/13 09:09:20;;;;;;;3.00;1.02;;;;;;;;;;4967572;28;20090;-58
2022/05/13 09:11:51;;;;;;;4.97;1.03;;;;;;;;;;4968000;28;20047;-58
2022/05/13 09:14:18;;;;;;;7.00;1.45;;;;;;;;;;4967859;28;20134;-58
2022/05/13 09:16:44;;;;;;;9.80;1.30;;;;;;;;;;4968178;28;20043;-58
2022/05/13 09:19:14;;;;;;;8.13;1.45;;;;;;;;;;4967793;28;20402;-58
2022/05/13 09:21:43;;;;;;;11.23;1.40;;;;;;;;;;4967148;28;20133;-58
2022/05/13 09:24:10;;;;;;;11.05;1.52;;;;;;;;;;4967497;28;20112;-58
2022/05/13 09:26:38;;;;;;;7.38;1.35;;;;;;;;;;4967951;28;20142;-58
2022/05/13 09:29:04;;;;;;;6.60;1.05;;;;;;;;;;4967856;28;20051;-58
2022/05/13 09:31:32;;;;;;;4.22;1.00;;;;;;;;;;4967959;28;20090;-58
2022/05/13 09:33:58;;;;;;;4.57;1.00;;;;;;;;;;4967862;28;20122;-58
2022/05/13 09:36:26;;;;;;;5.13;0.80;;;;;;;;;;4966608;28;20046;-58
2022/05/13 09:38:54;;;;;;;6.85;0.80;;;;;;;;;;4967803;28;20047;-58
2022/05/13 09:41:25;;;;;;;7.07;0.70;;;;;;;;;;4967354;28;20486;-58
2022/05/13 09:43:55;;;;;;;7.85;1.02;;;;;;;;;;4967841;28;20102;-58
2022/05/13 09:46:23;;;;;;;3.28;1.42;;;;;;;;;;4965879;28;20636;-58
2022/05/13 09:48:49;;;;;;;;;;;;;;;;;;4967712;28;20047;-57
2022/05/13 09:51:20;;;;;;;3.58;0.75;;;;;;;;;;4965802;28;20009;-59
2022/05/13 09:53:59;;;;;;;6.55;0.90;;;;;;;;;;4967168;28;20054;-58
2022/05/13 09:56:34;;;;;;;4.38;0.80;;;;;;;;;;4966998;28;20066;-58
2022/05/13 09:59:04;;;;;;;4.18;0.80;;;;;;;;;;4968010;28;20050;-58
2022/05/13 10:01:30;;;;;;;5.13;0.60;;;;;;;;;;4967532;28;20047;-58
2022/05/13 10:04:08;;;;;;;4.53;0.73;;;;;;;;;;4966582;28;20046;-58
2022/05/13 10:06:35;;;;;;;6.35;0.80;;;;;;;;;;4966797;28;20054;-58
2022/05/13 10:14:36;;;;;;;6.38;0.50;;;;;;;;;;4967268;28;20054;-58
2022/05/13 10:17:13;;;;;;;2.88;0.63;;;;;;;;;;4967987;28;20121;-57
2022/05/13 10:19:45;;;;;;;4.78;0.70;;;;;;;;;;4967137;28;20042;-58
2022/05/13 10:22:16;;;;;;;5.90;0.75;;;;;;;;;;4966609;28;20057;-58
2022/05/13 10:25:03;;;;;;;6.68;0.63;;;;;;;;;;4966837;28;20051;-58
2022/05/13 10:27:32;;;;;;;6.30;0.70;;;;;;;;;;4966593;28;20046;-58
2022/05/13 10:30:04;;;;;;;4.75;0.80;;;;;;;;;;4966878;28;20098;-58
2022/05/13 10:32:47;;;;;;;4.55;0.85;;;;;;;;;;4967106;28;20118;-58
2022/05/13 10:35:18;;;;;;;7.53;1.10;;;;;;;;;;4966149;28;20047;-58
2022/05/13 10:37:54;;;;;;;8.98;1.20;;;;;;;;;;4966299;28;20094;-58
2022/05/13 10:40:21;;;;;;;3.50;0.70;;;;;;;;;;4966522;28;20039;-58
2022/05/13 10:42:52;;;;;;;7.72;1.38;;;;;;;;;;4966788;28;20050;-58
2022/05/13 10:45:21;;;;;;;6.53;1.58;;;;;;;;;;4965954;28;20046;-58
2022/05/13 10:47:49;;;;;;;7.32;1.45;;;;;;;;;;4966761;28;20065;-58
2022/05/13 10:50:17;;;;;;;15.15;1.13;;;;;;;;;;4966183;28;20042;-58
2022/05/13 10:52:52;;;;;;;40.95;2.47;;;;;;;;;;4966067;28;20051;-58
2022/05/13 10:55:24;;;;;;;10.45;0.98;;;;;;;;;;4965516;28;20046;-58
2022/05/13 10:57:50;;;;;;;4.68;0.82;;;;;;;;;;4966094;28;20512;-58
2022/05/13 11:00:20;;;;;;;5.18;1.25;;;;;;;;;;4965771;28;20142;-58
2022/05/13 11:02:58;;;;;;;11.95;2.92;;;;;;;;;;4965998;28;20047;-58
2022/05/13 11:05:27;;;;;;;6.35;0.65;;;;;;;;;;4969161;28;20552;-63
2022/05/13 11:07:58;;;;;;;6.82;0.90;;;;;;;;;;4969664;28;20527;-57
2022/05/13 11:10:40;;;;;;;2.95;0.60;;;;;;;;;;4969931;28;20078;-58
2022/05/13 11:13:25;;;;;;;9.50;0.98;;;;;;;;;;4970514;28;20054;-58
2022/05/13 11:15:58;;;;;;;7.93;1.23;;;;;;;;;;4970003;28;20043;-58
2022/05/13 11:18:31;;;;;;;5.97;1.20;;;;;;;;;;4970009;28;20039;-57
2022/05/13 11:21:01;;;;;;;8.18;0.98;;;;;;;;;;4969119;28;20043;-58
2022/05/13 11:25:54;;;;;;;4.68;0.85;;;;;;;;;;4968936;28;20053;-58
2022/05/13 11:26:40;;;;;;;6.28;1.77;;;;;;;;;;4971329;28;20126;-58
2022/05/13 11:29:06;;;;;;;3.60;0.95;;;;;;;;;;4969259;28;20043;-58
2022/05/13 11:31:57;;;;;;;8.57;0.80;;;;;;;;;;4969992;28;20038;-57
2022/05/13 11:34:26;;;;;;;6.28;0.82;;;;;;;;;;4978451;28;20057;-58
2022/05/13 11:36:59;;;;;;;6.97;0.95;;;;;;;;;;4975743;28;20117;-57
2022/05/13 11:39:33;;;;;;;6.63;0.90;;;;;;;;;;4981032;28;20653;-57
2022/05/13 11:42:04;;;;;;;4.97;1.05;;;;;;;;;;4989385;28;20503;-57
2022/05/13 11:44:50;;;;;;;8.77;1.55;;;;;;;;;;4972027;28;20081;-57
2022/05/13 11:47:20;;;;;;;6.60;1.05;;;;;;;;;;4980087;28;20050;-57
2022/05/13 11:49:47;;;;;;;6.93;1.27;;;;;;;;;;4989069;28;20043;-58
2022/05/13 11:52:13;;;;;;;5.80;0.90;;;;;;;;;;4988125;28;20101;-57
2022/05/13 11:54:41;;;;;;;7.95;1.45;;;;;;;;;;4989064;28;20416;-58
2022/05/13 11:57:19;;;;;;;11.30;1.60;;;;;;;;;;4988881;28;20054;-58
2022/05/13 11:59:48;;;;;;;10.85;1.98;;;;;;;;;;4988988;28;20097;-57
2022/05/13 12:02:28;;;;;;;6.20;1.10;;;;;;;;;;4988647;28;20129;-59
2022/05/13 12:05:24;;;;;;;8.43;1.25;;;;;;;;;;4988626;28;20501;-57
2022/05/13 12:07:50;;;;;;;7.05;1.13;;;;;;;;;;4987955;28;20038;-57
2022/05/13 12:10:17;;;;;;;4.00;1.10;;;;;;;;;;4988135;28;20096;-57
2022/05/13 12:12:49;;;;;;;4.55;0.95;;;;;;;;;;4988408;28;20144;-57
2022/05/13 12:15:32;;;;;;;7.50;1.05;;;;;;;;;;4988325;28;20058;-58
2022/05/13 12:18:00;;;;;;;4.95;0.93;;;;;;;;;;4988748;28;20042;-57
2022/05/13 12:20:26;;;;;;;4.40;0.88;;;;;;;;;;4988256;28;20050;-57
2022/05/13 12:23:00;;;;;;;5.18;1.10;;;;;;;;;;4987628;28;20741;-57
2022/05/13 12:25:27;;;;;;;9.98;1.35;;;;;;;;;;4988331;28;20105;-57
2022/05/13 12:28:03;;;;;;;4.60;1.20;;;;;;;;;;4988573;28;20038;-57
2022/05/13 12:30:39;;;;;;;9.45;1.27;;;;;;;;;;4988344;28;20046;-57
2022/05/13 12:33:19;;;;;;;15.43;1.83;;;;;;;;;;4988575;28;20140;-58
2022/05/13 12:38:59;;;;;;;5.05;1.20;;;;;;;;;;4987855;28;20047;-58
2022/05/13 12:41:25;;;;;;;7.90;1.30;;;;;;;;;;4987663;28;20046;-57
2022/05/13 12:43:53;;;;;;;7.20;1.17;;;;;;;;;;4987976;28;20054;-57
2022/05/13 12:46:19;;;;;;;;;;;;;;;;;;4987622;28;20050;-57
2022/05/13 12:48:56;;;;;;;6.38;1.08;;;;;;;;;;4987979;28;19922;-57
2022/05/13 12:51:22;;;;;;;4.68;1.27;;;;;;;;;;4986726;28;20054;-57
2022/05/13 12:53:50;;;;;;;3.67;0.75;;;;;;;;;;4987882;28;20046;-57
2022/05/13 12:56:23;;;;;;;10.00;1.10;;;;;;;;;;4987408;28;20488;-58
2022/05/13 12:58:56;;;;;;;6.32;0.77;;;;;;;;;;4987854;28;20053;-57
2022/05/13 13:01:22;;;;;;;20.92;1.50;;;;;;;;;;4987110;28;20145;-58
2022/05/13 13:03:49;;;;;;;12.88;1.27;;;;;;;;;;4987874;28;20042;-57
2022/05/13 13:06:19;;;;;;;6.00;0.47;;;;;;;;;;4985713;28;20118;-58
2022/05/13 13:08:47;;;;;;;3.65;0.73;;;;;;;;;;4987063;28;20112;-58
2022/05/13 13:11:13;;;;;;;4.70;1.23;;;;;;;;;;4987368;28;20100;-57
2022/05/13 13:13:44;;;;;;;11.15;1.20;;;;;;;;;;4987707;28;20484;-57
2022/05/13 13:16:20;;;;;;;6.38;0.82;;;;;;;;;;4987374;28;20042;-57
2022/05/13 13:18:46;;;;;;;6.00;1.00;;;;;;;;;;4970837;28;20101;-57
2022/05/13 13:21:15;;;;;;;3.97;0.77;;;;;;;;;;4972858;28;20435;-57
2022/05/13 13:23:44;;;;;;;5.00;0.90;;;;;;;;;;4986624;28;20702;-58
2022/05/13 13:26:11;;;;;;;4.95;1.35;;;;;;;;;;4980258;28;20062;-58
2022/05/13 13:28:40;;;;;;;8.25;1.38;;;;;;;;;;4967638;28;20050;-58
2022/05/13 13:31:11;;;;;;;10.05;1.20;;;;;;;;;;4967792;28;20101;-59
2022/05/13 13:33:49;;;;;;;7.85;1.15;;;;;;;;;;4967472;28;20503;-58
2022/05/13 13:36:15;;;;;;;;;;;;;;;;;;4967275;28;20074;-59
2022/05/13 13:38:42;;;;;;;9.02;1.48;;;;;;;;;;4967777;28;19922;-57
2022/05/13 13:41:08;;;;;;;5.80;1.52;;;;;;;;;;4967572;28;20043;-57
2022/05/13 13:43:34;;;;;;;8.50;1.27;;;;;;;;;;4965650;28;20050;-57
2022/05/13 13:46:06;;;;;;;10.88;1.75;;;;;;;;;;4968159;28;20043;-57
2022/05/13 13:48:37;;;;;;;7.07;1.63;;;;;;;;;;4967400;28;20125;-57
2022/05/13 13:51:04;;;;;;;7.78;1.10;;;;;;;;;;4967019;28;20058;-57
2022/05/13 13:53:32;;;;;;;7.80;1.77;;;;;;;;;;4967395;28;20532;-57
2022/05/13 13:55:58;;;;;;;;;;;;;;;;;;4978648;28;20038;-57
2022/05/13 13:58:25;;;;;;;10.30;1.67;;;;;;;;;;4978331;28;19929;-57
2022/05/13 14:00:53;;;;;;;7.93;1.05;;;;;;;;;;4982119;28;20047;-57
2022/05/13 14:03:21;;;;;;;7.97;1.13;;;;;;;;;;4983744;28;20039;-57
2022/05/13 14:05:53;;;;;;;6.75;1.30;;;;;;;;;;4983688;28;20130;-56
2022/05/13 14:08:20;;;;;;;7.85;1.10;;;;;;;;;;4983652;28;20097;-57
2022/05/13 14:10:47;;;;;;;4.20;0.98;;;;;;;;;;4984075;28;20061;-56
2022/05/13 14:13:14;;;;;;;5.65;1.05;;;;;;;;;;4983885;28;20482;-59
2022/05/13 14:15:42;;;;;;;7.72;1.20;;;;;;;;;;4983826;28;20116;-56
2022/05/13 14:18:10;;;;;;;7.43;1.17;;;;;;;;;;4983680;28;20046;-56
2022/05/13 14:20:38;;;;;;;9.57;1.60;;;;;;;;;;4978680;28;20804;-57
2022/05/13 14:23:11;;;;;;;5.45;1.10;;;;;;;;;;4964948;28;20125;-57
2022/05/13 14:25:39;;;;;;;6.22;1.40;;;;;;;;;;4962712;28;20495;-57
2022/05/13 14:28:07;;;;;;;9.65;1.33;;;;;;;;;;4962816;28;20143;-57
2022/05/13 14:30:33;;;;;;;10.57;1.00;;;;;;;;;;4963896;28;20790;-57
2022/05/13 14:33:00;;;;;;;7.30;1.30;;;;;;;;;;4964383;28;20069;-57
2022/05/13 14:35:28;;;;;;;12.55;1.30;;;;;;;;;;4963314;28;20145;-57
2022/05/13 14:37:55;;;;;;;4.70;0.82;;;;;;;;;;4964224;28;20681;-57
2022/05/13 14:40:24;;;;;;;9.82;1.98;;;;;;;;;;4963706;28;20466;-57
2022/05/13 14:42:50;;;;;;;;;;;;;;;;;;4969236;28;20042;-57
2022/05/13 14:45:24;;;;;;;6.25;1.00;;;;;;;;;;4963639;28;19926;-56
2022/05/13 14:47:51;;;;;;;6.68;1.30;;;;;;;;;;4974639;28;20100;-56
2022/05/13 14:50:18;;;;;;;9.00;1.10;;;;;;;;;;4977054;28;20082;-57
2022/05/13 14:52:45;;;;;;;11.18;1.55;;;;;;;;;;4963694;28;20105;-56
2022/05/13 14:55:16;;;;;;;18.90;1.55;;;;;;;;;;4963513;28;20034;-56
2022/05/13 14:57:43;;;;;;;11.38;1.25;;;;;;;;;;4963361;28;20105;-57
2022/05/13 15:00:15;;;;;;;10.98;1.60;;;;;;;;;;4963994;28;20065;-56
2022/05/13 15:02:45;;;;;;;9.35;1.23;;;;;;;;;;4963985;28;20489;-56
2022/05/13 15:05:26;;;;;;;7.93;1.08;;;;;;;;;;4962904;28;20073;-59
2022/05/13 15:07:53;;;;;;;10.23;1.50;;;;;;;;;;4963379;28;20141;-56
2022/05/13 15:10:21;;;;;;;11.60;1.45;;;;;;;;;;4963320;28;20055;-57
2022/05/13 15:12:47;;;;;;;;;;;;;;;;;;4964099;28;20139;-56
2022/05/13 15:15:16;;;;;;;9.27;1.50;;;;;;;;;;4963784;28;20043;-56